Mobeetie, Texas
Current Conditions -  °F | °C
As of 12:15 PM on Thursday 18 Dec 2014 (Local Time) from KHHF Reporting Station
Drizzle Drizzle  
Wind Chill: 41°   Ceiling: 800
Heat Index: 41°   Visibility: 5mi
Dew Point: 40°   Wind: 0mph
Humidity: 95%   Direction: NA
Pressure: 30.13"   Gusts: NA
Location:  35.51°N, 100.44°W
Report Text: KHHF 181815Z AUTO 00000KT 5SM -DZ BKN008 OVC015 05/04 A3013 RMK AO2 T00500042
Loading
Personal Weather Stations






























Interactive Weather Map New forecast layout! Learn more

10-Day Weather Forecast

Advertisements
Track Severe Weather on mobile